createdAt,value
2022-12-08T00:02:18.545Z,64.77
2022-12-08T00:07:40.258Z,65.56
2022-12-08T00:12:43.389Z,65.93
2022-12-08T00:17:46.531Z,65.30
2022-12-08T00:22:49.690Z,65.69
2022-12-08T00:27:52.762Z,64.74
2022-12-08T00:32:55.754Z,65.45
2022-12-08T00:38:00.931Z,66.69
2022-12-08T00:43:04.328Z,66.25
2022-12-08T00:48:07.641Z,66.22
2022-12-08T00:53:10.620Z,66.09
2022-12-08T00:58:13.656Z,66.71
2022-12-08T01:03:18.053Z,65.87
2022-12-08T01:08:21.168Z,67.19
2022-12-08T01:13:24.230Z,65.57
2022-12-08T01:18:28.599Z,66.85
2022-12-08T01:23:31.882Z,66.53
2022-12-08T01:28:35.181Z,66.68
2022-12-08T01:33:38.393Z,66.94
2022-12-08T01:38:41.500Z,68.06
2022-12-08T01:44:11.222Z,68.35
2022-12-08T01:49:18.852Z,68.62
2022-12-08T01:54:26.851Z,68.35
2022-12-08T01:59:33.358Z,68.11
2022-12-08T02:04:36.577Z,68.45
2022-12-08T02:09:41.039Z,67.60
2022-12-08T02:14:44.206Z,68.03
2022-12-08T02:19:56.466Z,67.67
2022-12-08T02:25:08.875Z,67.53
2022-12-08T02:30:47.701Z,67.82
2022-12-08T02:36:02.607Z,66.50
2022-12-08T02:41:11.634Z,67.39
2022-12-08T02:46:22.371Z,67.98
2022-12-08T02:51:25.614Z,66.11
2022-12-08T02:57:03.812Z,66.56
2022-12-08T03:02:42.869Z,67.39
2022-12-08T03:08:04.335Z,67.32
2022-12-08T03:13:15.031Z,66.19
2022-12-08T03:18:22.799Z,66.87
2022-12-08T03:23:27.077Z,67.42
2022-12-08T03:28:30.508Z,67.37
2022-12-08T03:33:38.080Z,67.23
2022-12-08T03:38:44.160Z,67.35
2022-12-08T03:43:50.985Z,65.54
2022-12-08T03:48:54.368Z,66.29
2022-12-08T03:53:57.532Z,66.49
2022-12-08T03:59:01.231Z,66.36
2022-12-08T04:04:04.777Z,67.12
2022-12-08T04:09:07.938Z,66.29
2022-12-08T04:14:11.022Z,67.22
2022-12-08T04:19:14.039Z,66.51
2022-12-08T04:24:17.071Z,66.36
2022-12-08T04:29:20.275Z,67.35
2022-12-08T04:34:23.442Z,67.18
2022-12-08T04:39:26.466Z,67.92
2022-12-08T04:44:29.558Z,67.84
2022-12-08T04:50:07.140Z,68.71
2022-12-08T04:55:19.038Z,67.88
2022-12-08T05:00:22.187Z,67.71
2022-12-08T05:05:51.134Z,67.71
2022-12-08T05:10:54.289Z,68.54
2022-12-08T05:16:07.438Z,68.46
2022-12-08T05:21:11.281Z,68.52
2022-12-08T05:26:14.358Z,69.22
2022-12-08T05:31:18.327Z,69.17
2022-12-08T05:36:21.630Z,68.46
2022-12-08T05:46:41.875Z,68.84
2022-12-08T05:51:45.619Z,69.02
2022-12-08T05:56:49.544Z,69.44
2022-12-08T06:07:16.206Z,69.33
2022-12-08T06:12:19.586Z,69.06
2022-12-08T06:17:22.640Z,68.26
2022-12-08T06:22:26.331Z,67.78
2022-12-08T06:27:29.603Z,67.84
2022-12-08T06:32:32.734Z,68.73
2022-12-08T06:37:35.919Z,68.55
2022-12-08T06:42:45.087Z,68.43
2022-12-08T06:47:48.196Z,68.33
2022-12-08T06:53:01.104Z,67.61
2022-12-08T06:58:08.092Z,68.04
2022-12-08T07:03:12.779Z,68.28
2022-12-08T07:08:16.088Z,68.18
2022-12-08T07:13:19.265Z,67.54
2022-12-08T07:18:22.449Z,67.28
2022-12-08T07:23:25.625Z,68.04
2022-12-08T07:28:32.116Z,67.37
2022-12-08T07:33:36.414Z,67.53
2022-12-08T07:38:39.935Z,67.55
2022-12-08T07:43:43.658Z,67.68
2022-12-08T07:48:48.956Z,66.67
2022-12-08T07:53:54.416Z,66.69
2022-12-08T07:58:58.044Z,65.84
2022-12-08T08:04:04.852Z,66.62
2022-12-08T08:09:09.158Z,66.20
2022-12-08T08:14:13.307Z,65.94
2022-12-08T08:19:16.384Z,66.22
2022-12-08T08:24:20.609Z,66.25
2022-12-08T08:29:23.978Z,64.95
2022-12-08T08:34:27.111Z,64.50
2022-12-08T08:39:32.197Z,65.10
2022-12-08T08:44:35.809Z,63.98
2022-12-08T08:49:42.844Z,64.44
2022-12-08T08:54:46.194Z,64.86
2022-12-08T08:59:49.251Z,64.03
2022-12-08T09:04:52.633Z,64.17
2022-12-08T09:10:00.011Z,62.76
2022-12-08T09:15:06.710Z,63.52
2022-12-08T09:20:09.996Z,63.98
2022-12-08T09:25:13.385Z,63.53
2022-12-08T09:30:16.679Z,62.96
2022-12-08T09:35:19.858Z,62.72
2022-12-08T09:40:24.574Z,61.71
2022-12-08T09:45:30.852Z,62.24
2022-12-08T09:50:44.103Z,61.27
2022-12-08T09:56:03.944Z,60.95
2022-12-08T10:12:29.600Z,59.37
2022-12-08T10:17:41.230Z,59.05
2022-12-08T10:22:46.611Z,58.95
2022-12-08T10:27:54.435Z,58.57
2022-12-08T10:32:57.846Z,58.54
2022-12-08T10:38:02.796Z,58.44
2022-12-08T10:43:07.262Z,57.78
2022-12-08T10:48:33.549Z,57.05
2022-12-08T10:53:46.816Z,56.92
2022-12-08T10:58:50.057Z,56.23
2022-12-08T11:03:57.300Z,56.39
2022-12-08T11:09:04.501Z,56.26
2022-12-08T11:14:09.311Z,56.05
2022-12-08T11:19:20.322Z,55.54
2022-12-08T11:24:37.366Z,55.15
2022-12-08T11:29:41.518Z,54.47
2022-12-08T11:35:04.152Z,53.77
2022-12-08T11:40:16.609Z,53.37
2022-12-08T11:45:30.509Z,53.73
2022-12-08T11:50:48.192Z,53.87
2022-12-08T11:55:57.538Z,53.75
2022-12-08T12:01:01.417Z,53.79
2022-12-08T12:06:54.292Z,54.59
2022-12-08T12:12:19.563Z,54.53
2022-12-08T12:23:06.335Z,54.17
2022-12-08T12:28:13.610Z,55.54
2022-12-08T12:33:18.541Z,55.33
2022-12-08T12:38:40.269Z,56.09
2022-12-08T12:44:09.412Z,55.43
2022-12-08T12:49:40.352Z,56.08
2022-12-08T12:54:45.475Z,55.88
2022-12-08T12:59:55.849Z,56.18
2022-12-08T13:05:02.615Z,55.97
2022-12-08T13:10:20.418Z,56.42
2022-12-08T13:15:23.480Z,56.75
2022-12-08T13:20:26.895Z,56.96
2022-12-08T13:25:45.144Z,56.91
2022-12-08T13:30:55.502Z,57.10
2022-12-08T13:36:11.986Z,56.78
2022-12-08T13:41:25.040Z,57.35
2022-12-08T13:57:52.393Z,57.40
2022-12-08T14:03:01.682Z,57.60
2022-12-08T14:08:50.434Z,57.50
2022-12-08T14:13:42.688Z,57.25
2022-12-08T14:18:45.813Z,57.42
2022-12-08T14:23:49.049Z,56.81
2022-12-08T14:28:52.286Z,56.51
2022-12-08T14:33:56.686Z,56.78
2022-12-08T14:39:00.040Z,56.74
2022-12-08T14:44:03.638Z,56.46
2022-12-08T14:49:39.633Z,56.70
2022-12-08T14:54:43.991Z,56.55
2022-12-08T14:59:48.508Z,56.35
2022-12-08T15:05:12.420Z,55.67
2022-12-08T15:10:15.538Z,56.36
2022-12-08T15:15:18.867Z,56.68
2022-12-08T15:20:45.901Z,56.47
2022-12-08T15:25:49.653Z,56.83
2022-12-08T15:30:54.047Z,56.64
2022-12-08T15:35:57.215Z,56.95
2022-12-08T15:41:00.321Z,56.47
2022-12-08T15:46:05.241Z,56.96
2022-12-08T15:51:08.401Z,56.67
2022-12-08T15:56:29.586Z,56.42
2022-12-08T16:01:32.755Z,56.10
2022-12-08T16:12:17.665Z,56.36
2022-12-08T16:17:21.606Z,56.65
2022-12-08T16:28:36.876Z,56.46
2022-12-08T16:33:16.684Z,57.27
2022-12-08T16:38:19.778Z,56.94
2022-12-08T16:43:22.867Z,56.19
2022-12-08T16:48:25.941Z,56.40
2022-12-08T16:53:29.020Z,56.55
2022-12-08T16:58:32.099Z,56.07
2022-12-08T17:03:35.302Z,55.86
2022-12-08T17:08:40.083Z,56.02
2022-12-08T17:13:43.196Z,56.15
2022-12-08T17:18:47.902Z,56.70
2022-12-08T17:23:51.092Z,56.28
2022-12-08T17:29:01.772Z,55.70
2022-12-08T17:34:09.901Z,56.52
2022-12-08T17:39:18.352Z,55.90
2022-12-08T17:44:22.044Z,56.38
2022-12-08T17:49:26.545Z,56.55
2022-12-08T17:54:30.275Z,56.29
2022-12-08T17:59:33.769Z,56.83
2022-12-08T18:04:37.127Z,57.11
2022-12-08T18:09:40.237Z,57.05
2022-12-08T18:14:43.401Z,57.36
2022-12-08T18:19:46.585Z,56.30
2022-12-08T18:24:49.712Z,56.89
2022-12-08T18:29:52.822Z,56.82
2022-12-08T18:34:55.925Z,56.47
2022-12-08T18:39:59.053Z,57.02
2022-12-08T18:45:07.195Z,56.33
2022-12-08T18:50:12.351Z,56.05
2022-12-08T18:55:16.282Z,56.12
2022-12-08T19:00:20.175Z,56.05
2022-12-08T19:05:23.247Z,56.38
2022-12-08T19:10:26.666Z,56.47
2022-12-08T19:15:30.463Z,56.27
2022-12-08T19:20:33.731Z,56.41
2022-12-08T19:25:36.806Z,56.18
2022-12-08T19:30:39.880Z,56.30
2022-12-08T19:35:47.513Z,56.37
2022-12-08T19:41:12.037Z,55.73
2022-12-08T19:46:15.293Z,56.35
2022-12-08T19:51:18.474Z,56.20
2022-12-08T20:01:40.298Z,56.08
2022-12-08T20:12:02.801Z,56.70
2022-12-08T20:17:05.925Z,56.53
2022-12-08T20:22:09.236Z,56.67
2022-12-08T20:27:16.396Z,56.46
2022-12-08T20:32:20.394Z,57.19
2022-12-08T20:37:23.500Z,57.72
2022-12-08T20:42:26.549Z,57.78
2022-12-08T20:47:29.679Z,57.70
2022-12-08T20:52:32.824Z,57.84
2022-12-08T20:57:36.120Z,59.08
2022-12-08T21:02:45.166Z,59.29
2022-12-08T21:07:50.202Z,59.82
2022-12-08T21:12:53.309Z,59.95
2022-12-08T21:17:56.596Z,61.40
2022-12-08T21:22:59.743Z,61.23
2022-12-08T21:28:02.833Z,61.23
2022-12-08T21:33:06.693Z,61.55
2022-12-08T21:38:10.298Z,61.80
2022-12-08T21:43:14.040Z,61.74
2022-12-08T21:48:17.377Z,63.05
2022-12-08T21:53:26.664Z,62.32
2022-12-08T21:58:32.303Z,63.40
2022-12-08T22:03:39.845Z,63.58
2022-12-08T22:08:43.372Z,63.80
2022-12-08T22:13:46.678Z,64.26
2022-12-08T22:18:50.332Z,64.15
2022-12-08T22:23:53.425Z,64.30
2022-12-08T22:28:56.591Z,64.45
2022-12-08T22:34:00.030Z,64.22
2022-12-08T22:39:04.242Z,64.89
2022-12-08T22:44:08.075Z,64.53
2022-12-08T22:49:11.223Z,64.51
2022-12-08T22:54:14.266Z,65.34
2022-12-08T22:59:17.419Z,65.05
2022-12-08T23:04:20.720Z,65.91
2022-12-08T23:09:24.076Z,65.58
2022-12-08T23:14:27.302Z,65.87
2022-12-08T23:19:30.589Z,65.27
2022-12-08T23:24:33.910Z,65.32
2022-12-08T23:29:37.957Z,66.60
2022-12-08T23:34:41.015Z,66.06
2022-12-08T23:39:44.072Z,66.32
2022-12-08T23:44:47.155Z,66.29
2022-12-08T23:49:50.398Z,67.11
2022-12-08T23:54:55.081Z,67.89
2022-12-08T23:59:58.380Z,66.98
